Startpagina
METAR-TAF:

METAR-TAF

Vliegvelden :

Vladivostok, Rusland

Luchthaven Vladivostok

breedte: 43-07N, lengte: 131-56E, hoogte: 184 m

Actueel weer

Dit bericht is 43 minuten geleden gemaakt, om 06:30 UTC
Wind 10 kt uit het westen
Temperatuur 23°C
Vochtigheid 41%
Druk 1000 hPa
Zicht 10 km of meer

METAR: UHWW 300630Z 26005MPS 9999 NSC 23/09 Q1000 R25L/0///70 NOSIG RMK QFE749

Tijdstip: 17:13 (07:13 UTC)

Verwachting

Dit bericht is 1 uur en het 55 minuten geleden gemaakt, om 05:18 UTC
Verwachting geldig van 30 om 06 UTC tot 31 om 06 UTC
Wind 6 kt uit het westen
Zicht 10 km of meer
Verspreide wolken op 3000 ft, Cumulonimbus.
Tijdelijke
van 30 om 06 UTC tot 30 om 10 UTC
Wind 17 kt uit het westen
Zicht: 5000 m
Gebroken wolken op 2000 ft, Cumulonimbus.
lichte regenbuien
Wijzigt naar
van 30 om 11 UTC tot 30 om 13 UTC
Wind 6 kt uit het noordnoordwesten

TAF: UHWW 300518Z 3006/3106 27003MPS 9999 SCT030CB TEMPO 3006/3010 28009MPS 5000 -SHRA BKN020CB BECMG 3011/3013 34003MPS

Waarnemingen en weersverwachtingen van meer dan 4000 vliegvelden (METAR en TAF).

De beschikbare stations zijn de gele en rode punten op de kaart.

Ga met uw muis naar het station om de naam te zien.

Klik dan om waarnemingen en weersverwachtingen te zien.

kaart wijzigen: klik op de groene knoppen met een zwart kruis om in te zoomen, op de groene knop met een streepje om uit te zoomen of op de groene pijlen voor aangrenzende kaarten.


METAR-TAF: